Alexander, AR

8:52 AM CDT on August 01, 2015 (GMT -0500)
Vimy Ridge Community | | Change Station
CLOSE
Current Station
Personal Weather Station
Location: Mabelvale, AR
Elevation: 374 ft
Nearby Weather Stations

Elev 374 ft 34.60 °N, 92.40 °W | Updated 1 minute ago

Clear
Clear
75.1 °F
Feels Like 74 °F
N
0.0
Wind Variable Wind from ENE
Gusts 0.0 mph

Today
High -- | Low -- °F
--% Chance of Precip.
Yesterday
High -- | Low -- °F
Precip. -- in
6:19 AM 8:12 PM
Full, 98% visible
Pressure 30.06 in
Visibility 10.0 miles
Clouds Few 25000 ft
Heat Index 74 °F
Dew Point 72 °F
Humidity 89%
Rainfall 0.00 in
Snow Depth Not available.
UV 1 out of 12
Pollen 5.10 out of 12
Air Quality Not available.
Flu Activity Not available.
METAR KLIT 011253Z 33004KT 10SM FEW250 26/20 A3006 RMK AO2 SLP177 T02560200 $

More Conditions Fewer Conditions

Pressure 30.06 in
Visibility 10.0 miles
Clouds Few 25000 ft
Heat Index 74 °F
Dew Point 72 °F
Humidity 89%
Rainfall 0.00 in
Snow Depth Not available.
UV 1 out of 12
Pollen 5.10 out of 12
Air Quality Not available.
Flu Activity Not available.
METAR KLIT 011253Z 33004KT 10SM FEW250 26/20 A3006 RMK AO2 SLP177 T02560200 $

More Conditions Fewer Conditions

10-Day Weather Forecast

×

Almanac

Astronomy

Aug. 01, 2015 Rise Set
Actual Time
Civil Twilight
Nautical Twilight
Astronomical Twilight
Moon
Length of Visible Light
Length of Day
Tomorrow will be .
, % of the Moon is Illuminated

Today's Extremes

State Highs State Lows

Community

WunderPhotos

Upload Photos

1,842,940 photos uploaded!

WunderBlogs® & News

Nearby

Air Quality

  Air Quality AQ Index Pollutant
Not available.

Snow Depth

Station Depth Elevation

Earthquake Activity

City Distance Mag. Time & Date
Minimum magnitude displayed is 2.5.

Coastal Water Temperatures

Place Temperature

Stations

Nearby Weather Stations

Station Location Temp. Windchill Dew Point Humidity Wind Precip. Elev Updated Type